createdAt,value
2022-11-22T00:09:18.000Z,1.83
2022-11-22T00:39:32.792Z,1.97
2022-11-22T01:09:41.673Z,2.10
2022-11-22T01:39:50.033Z,3.67
2022-11-22T02:10:00.965Z,1.87
2022-11-22T02:40:19.975Z,1.40
2022-11-22T03:10:31.403Z,2.40
2022-11-22T03:40:48.536Z,1.70
2022-11-22T04:10:57.411Z,4.40
2022-11-22T05:11:25.290Z,7.57
2022-11-22T05:41:36.517Z,2.43
2022-11-22T06:11:45.023Z,1.77
2022-11-22T06:41:53.458Z,4.30
2022-11-22T07:12:05.533Z,4.97
2022-11-22T07:42:23.665Z,8.70
2022-11-22T08:12:42.090Z,11.87
2022-11-22T08:42:50.664Z,8.90
2022-11-22T09:12:59.566Z,9.37
2022-11-22T09:43:22.796Z,5.90
2022-11-22T10:13:38.330Z,6.30
2022-11-22T10:44:02.570Z,3.40
2022-11-22T11:14:29.276Z,3.87
2022-11-22T11:44:46.698Z,22.67
2022-11-22T12:15:11.567Z,28.03
2022-11-22T12:45:29.591Z,28.00
2022-11-22T13:15:41.246Z,29.37
2022-11-22T13:45:58.458Z,27.50
2022-11-22T14:16:33.144Z,27.30
2022-11-22T14:46:54.373Z,29.13
2022-11-22T16:18:25.291Z,27.10
2022-11-22T16:48:36.128Z,26.37
2022-11-22T17:18:45.312Z,27.13
2022-11-22T17:49:00.325Z,26.70
2022-11-22T18:19:10.933Z,26.47
2022-11-22T18:49:34.743Z,25.27
2022-11-22T19:19:44.048Z,26.30
2022-11-22T19:49:52.563Z,25.57
2022-11-22T20:20:06.485Z,24.93
2022-11-22T20:50:21.152Z,25.40
2022-11-22T21:20:29.916Z,24.33
2022-11-22T21:50:38.438Z,24.33
2022-11-22T22:21:00.372Z,25.40
2022-11-22T22:51:26.225Z,24.37
2022-11-22T23:21:52.473Z,25.37
2022-11-22T23:52:00.893Z,25.27
